Time;durP1;ratioP1;P1;durP2;ratioP2;P2;SDS_P1;SDS_P2;PMS_P1;PMS_P2;Temp;Humidity;BMP_temperature;BMP_pressure;BME280_temperature;BME280_humidity;BME280_pressure;Samples;Min_cycle;Max_cycle;Signal;HPM_P1;HPM_P2
2024/04/07 00:02:04;;;;;;;8.40;1.70;;;;;;;;;;5091308;28;20683;-81
2024/04/07 00:04:31;;;;;;;6.93;1.93;;;;;;;;;;5091220;28;20268;-80
2024/04/07 00:06:57;;;;;;;8.80;1.80;;;;;;;;;;5090981;28;20648;-81
2024/04/07 00:09:25;;;;;;;9.37;2.17;;;;;;;;;;5091382;28;20221;-81
2024/04/07 00:11:51;;;;;;;7.20;1.80;;;;;;;;;;5091050;28;20195;-80
2024/04/07 00:14:19;;;;;;;7.47;1.90;;;;;;;;;;5091146;28;20605;-81
2024/04/07 00:16:45;;;;;;;8.53;1.90;;;;;;;;;;5091332;28;20539;-82
2024/04/07 00:19:13;;;;;;;8.03;2.13;;;;;;;;;;5090664;28;20206;-80
2024/04/07 00:21:40;;;;;;;8.33;1.80;;;;;;;;;;5091255;28;20258;-81
2024/04/07 00:24:07;;;;;;;8.50;2.00;;;;;;;;;;5091119;28;20210;-81
2024/04/07 00:26:33;;;;;;;6.80;2.20;;;;;;;;;;5091198;28;20299;-81
2024/04/07 00:29:01;;;;;;;9.43;2.00;;;;;;;;;;5090942;28;20225;-81
2024/04/07 00:31:27;;;;;;;8.73;1.67;;;;;;;;;;5090926;28;20544;-81
2024/04/07 00:33:54;;;;;;;6.23;1.70;;;;;;;;;;5091142;28;20657;-80
2024/04/07 00:36:22;;;;;;;6.93;1.73;;;;;;;;;;5091440;28;20194;-82
2024/04/07 00:38:49;;;;;;;10.13;1.80;;;;;;;;;;5090952;28;20305;-81
2024/04/07 00:41:15;;;;;;;6.57;1.60;;;;;;;;;;5090904;28;20724;-81
2024/04/07 00:43:43;;;;;;;9.93;1.83;;;;;;;;;;5091293;28;20687;-82
2024/04/07 00:46:09;;;;;;;8.27;2.17;;;;;;;;;;5090857;28;20575;-81
2024/04/07 00:48:36;;;;;;;8.03;2.23;;;;;;;;;;5090971;28;20256;-80
2024/04/07 00:51:03;;;;;;;5.80;1.70;;;;;;;;;;5091231;28;20217;-81
2024/04/07 00:53:31;;;;;;;10.23;2.10;;;;;;;;;;5091391;28;20228;-81
2024/04/07 00:55:58;;;;;;;6.87;1.70;;;;;;;;;;5091065;28;20195;-81
2024/04/07 00:58:25;;;;;;;9.30;2.40;;;;;;;;;;5091023;28;20199;-80
2024/04/07 01:00:51;;;;;;;10.37;2.40;;;;;;;;;;5091014;28;20194;-81
2024/04/07 01:03:19;;;;;;;6.70;1.97;;;;;;;;;;5091015;28;20689;-80
2024/04/07 01:05:46;;;;;;;7.77;2.60;;;;;;;;;;5091108;28;20240;-81
2024/04/07 01:08:14;;;;;;;9.93;2.33;;;;;;;;;;5090401;28;20297;-81
2024/04/07 01:10:42;;;;;;;9.80;2.57;;;;;;;;;;5091060;28;20198;-81
2024/04/07 01:13:09;;;;;;;8.20;2.50;;;;;;;;;;5090614;28;20218;-81
2024/04/07 01:15:36;;;;;;;9.07;2.53;;;;;;;;;;5090114;28;20671;-81
2024/04/07 01:18:03;;;;;;;11.67;2.90;;;;;;;;;;5093210;28;20225;-82
2024/04/07 01:20:30;;;;;;;10.57;3.00;;;;;;;;;;5094696;28;20202;-81
2024/04/07 01:22:58;;;;;;;12.07;2.47;;;;;;;;;;5094090;28;20293;-81
2024/04/07 01:25:25;;;;;;;9.63;2.30;;;;;;;;;;5094097;28;20253;-80
2024/04/07 01:27:55;;;;;;;10.40;3.00;;;;;;;;;;5094468;28;20198;-81
2024/04/07 01:30:21;;;;;;;8.63;2.60;;;;;;;;;;5094130;28;20237;-81
2024/04/07 01:32:48;;;;;;;11.60;2.67;;;;;;;;;;5094010;28;20734;-81
2024/04/07 01:35:15;;;;;;;13.33;2.73;;;;;;;;;;5094009;28;20195;-82
2024/04/07 01:37:42;;;;;;;11.70;2.20;;;;;;;;;;5094428;28;20233;-81
2024/04/07 01:40:09;;;;;;;15.30;2.63;;;;;;;;;;5094184;28;20334;-81
2024/04/07 01:42:37;;;;;;;9.90;2.27;;;;;;;;;;5093920;28;20214;-81
2024/04/07 01:45:04;;;;;;;11.47;2.53;;;;;;;;;;5093945;28;20278;-81
2024/04/07 01:47:32;;;;;;;11.93;2.53;;;;;;;;;;5093791;28;20198;-81
2024/04/07 01:49:58;;;;;;;7.90;2.10;;;;;;;;;;5093921;28;20671;-81
2024/04/07 01:52:25;;;;;;;11.70;2.37;;;;;;;;;;5093705;28;20228;-81
2024/04/07 01:54:51;;;;;;;11.43;2.43;;;;;;;;;;5093724;28;20226;-82
2024/04/07 01:57:19;;;;;;;14.17;2.80;;;;;;;;;;5093400;28;20271;-81
2024/04/07 01:59:46;;;;;;;11.77;2.70;;;;;;;;;;5093546;28;20222;-81
2024/04/07 02:02:16;;;;;;;13.67;2.57;;;;;;;;;;5093562;28;20290;-81
2024/04/07 02:04:43;;;;;;;11.37;2.40;;;;;;;;;;5093581;28;20666;-81
2024/04/07 02:07:10;;;;;;;15.77;2.53;;;;;;;;;;5093458;28;20633;-81
2024/04/07 02:09:36;;;;;;;11.37;2.20;;;;;;;;;;5093359;28;20694;-81
2024/04/07 02:12:04;;;;;;;12.57;2.60;;;;;;;;;;5093721;28;20201;-81
2024/04/07 02:14:30;;;;;;;14.13;2.40;;;;;;;;;;5092852;28;20726;-81
2024/04/07 02:16:58;;;;;;;13.60;2.20;;;;;;;;;;5093663;28;20198;-82
2024/04/07 02:19:25;;;;;;;12.97;2.20;;;;;;;;;;5093099;28;20191;-81
2024/04/07 02:21:52;;;;;;;15.23;2.47;;;;;;;;;;5093540;28;20625;-81
2024/04/07 02:24:18;;;;;;;10.53;2.27;;;;;;;;;;5093570;28;20194;-81
2024/04/07 02:26:46;;;;;;;10.87;2.90;;;;;;;;;;5092787;28;20222;-81
2024/04/07 02:29:13;;;;;;;13.07;2.30;;;;;;;;;;5091976;28;20195;-80
2024/04/07 02:31:40;;;;;;;13.77;2.50;;;;;;;;;;5093160;28;20209;-81
2024/04/07 02:34:08;;;;;;;12.27;2.60;;;;;;;;;;5092780;28;20226;-81
2024/04/07 02:36:37;;;;;;;16.00;2.90;;;;;;;;;;5092748;28;20285;-79
2024/04/07 02:39:05;;;;;;;15.27;2.57;;;;;;;;;;5087787;28;20202;-81
2024/04/07 02:41:32;;;;;;;16.53;2.47;;;;;;;;;;5081316;28;20218;-81
2024/04/07 02:43:58;;;;;;;13.83;2.50;;;;;;;;;;5072177;28;20676;-81
2024/04/07 02:49:12;;;;;;;16.53;2.83;;;;;;;;;;5072839;28;20344;-81
2024/04/07 02:51:39;;;;;;;13.73;2.33;;;;;;;;;;5072573;28;20199;-81
2024/04/07 02:54:06;;;;;;;19.20;2.67;;;;;;;;;;5072133;28;20222;-81
2024/04/07 02:56:33;;;;;;;16.43;2.83;;;;;;;;;;5071602;28;20228;-82
2024/04/07 02:58:59;;;;;;;14.00;2.33;;;;;;;;;;5072050;28;20191;-82
2024/04/07 03:01:27;;;;;;;13.70;2.73;;;;;;;;;;5072053;28;20206;-81
2024/04/07 03:03:54;;;;;;;17.17;2.73;;;;;;;;;;5072157;28;20281;-81
2024/04/07 03:06:23;;;;;;;13.77;2.53;;;;;;;;;;5072342;28;20203;-80
2024/04/07 03:08:51;;;;;;;11.80;2.40;;;;;;;;;;5072315;28;20199;-79
2024/04/07 03:11:18;;;;;;;12.77;2.20;;;;;;;;;;5071374;28;20195;-82
2024/04/07 03:13:44;;;;;;;13.57;2.37;;;;;;;;;;5080988;28;20218;-81
2024/04/07 03:16:13;;;;;;;16.27;2.60;;;;;;;;;;5092437;28;20667;-81
2024/04/07 03:18:39;;;;;;;11.40;2.67;;;;;;;;;;5092013;28;20742;-81
2024/04/07 03:21:07;;;;;;;14.30;2.70;;;;;;;;;;5092319;28;20217;-81
2024/04/07 03:23:34;;;;;;;11.10;2.33;;;;;;;;;;5091912;28;20199;-81
2024/04/07 03:26:01;;;;;;;12.07;2.63;;;;;;;;;;5091840;28;20636;-81
2024/04/07 03:28:28;;;;;;;13.67;2.60;;;;;;;;;;5092000;28;20216;-81
2024/04/07 03:30:55;;;;;;;20.07;2.83;;;;;;;;;;5091825;28;20234;-81
2024/04/07 03:33:21;;;;;;;19.13;2.80;;;;;;;;;;5091894;28;20249;-81
2024/04/07 03:35:48;;;;;;;17.20;2.80;;;;;;;;;;5092530;28;20275;-80
2024/04/07 03:38:16;;;;;;;16.73;2.40;;;;;;;;;;5091840;28;20627;-81
2024/04/07 03:40:44;;;;;;;14.67;2.10;;;;;;;;;;5090012;28;20751;-80
2024/04/07 03:43:16;;;;;;;19.47;2.70;;;;;;;;;;5091398;28;20217;-82
2024/04/07 03:45:43;;;;;;;15.70;3.17;;;;;;;;;;5092003;28;20843;-80
2024/04/07 03:48:12;;;;;;;15.87;2.50;;;;;;;;;;5091441;28;20198;-81
2024/04/07 03:50:42;;;;;;;14.33;2.87;;;;;;;;;;5091392;28;20686;-80
2024/04/07 03:53:08;;;;;;;19.90;2.93;;;;;;;;;;5091897;28;20198;-80
2024/04/07 03:55:35;;;;;;;16.70;2.87;;;;;;;;;;5091027;28;20194;-81
2024/04/07 03:58:03;;;;;;;17.13;2.60;;;;;;;;;;5091720;28;20342;-81
2024/04/07 04:00:30;;;;;;;16.10;2.70;;;;;;;;;;5091588;28;20205;-81
2024/04/07 04:02:56;;;;;;;14.27;2.70;;;;;;;;;;5091120;28;20861;-81
2024/04/07 04:05:24;;;;;;;17.53;2.50;;;;;;;;;;5091485;28;20710;-81
2024/04/07 04:07:50;;;;;;;12.67;2.30;;;;;;;;;;5091789;28;20243;-80
2024/04/07 04:10:17;;;;;;;13.40;2.40;;;;;;;;;;5091166;28;20275;-80
2024/04/07 04:12:43;;;;;;;20.87;2.80;;;;;;;;;;5091512;28;20271;-81
2024/04/07 04:15:12;;;;;;;14.67;2.53;;;;;;;;;;5091596;28;20333;-81
2024/04/07 04:17:38;;;;;;;17.97;2.67;;;;;;;;;;5091333;28;20198;-81
2024/04/07 04:20:08;;;;;;;16.70;2.67;;;;;;;;;;5091521;28;20221;-81
2024/04/07 04:22:34;;;;;;;16.30;2.50;;;;;;;;;;5091460;28;20204;-81
2024/04/07 04:25:01;;;;;;;13.50;2.30;;;;;;;;;;5090957;28;20301;-81
2024/04/07 04:27:27;;;;;;;15.77;2.60;;;;;;;;;;5091432;28;20195;-81
2024/04/07 04:29:54;;;;;;;17.33;2.60;;;;;;;;;;5091184;28;20210;-81
2024/04/07 04:32:22;;;;;;;14.17;2.70;;;;;;;;;;5091353;28;20614;-81
2024/04/07 04:34:49;;;;;;;18.10;2.73;;;;;;;;;;5091079;28;20225;-81
2024/04/07 04:37:15;;;;;;;18.00;2.80;;;;;;;;;;5091063;28;20698;-81
2024/04/07 04:39:43;;;;;;;14.93;2.63;;;;;;;;;;5091147;28;20226;-80
2024/04/07 04:42:10;;;;;;;17.70;2.60;;;;;;;;;;5091009;28;20194;-81
2024/04/07 04:44:36;;;;;;;19.43;3.20;;;;;;;;;;5091581;28;20195;-81
2024/04/07 04:47:04;;;;;;;19.73;2.60;;;;;;;;;;5091141;28;20675;-82
2024/04/07 04:49:31;;;;;;;21.77;3.10;;;;;;;;;;5090682;28;20216;-82
2024/04/07 04:51:59;;;;;;;16.67;3.07;;;;;;;;;;5091968;28;20285;-81
2024/04/07 04:54:25;;;;;;;19.10;2.67;;;;;;;;;;5094448;28;20585;-81
2024/04/07 04:56:52;;;;;;;14.43;2.40;;;;;;;;;;5095129;28;20256;-82
2024/04/07 04:59:18;;;;;;;17.87;2.60;;;;;;;;;;5094840;28;20206;-81
2024/04/07 05:01:46;;;;;;;23.10;3.00;;;;;;;;;;5094774;28;20211;-80
2024/04/07 05:04:12;;;;;;;15.97;3.13;;;;;;;;;;5094992;28;20256;-82
2024/04/07 05:06:41;;;;;;;15.27;2.77;;;;;;;;;;5094602;28;20671;-81
2024/04/07 05:09:09;;;;;;;19.57;3.17;;;;;;;;;;5094451;28;20294;-81
2024/04/07 05:11:36;;;;;;;12.43;2.53;;;;;;;;;;5093053;28;20209;-82
2024/04/07 05:14:03;;;;;;;11.73;2.40;;;;;;;;;;5094831;28;20224;-81
2024/04/07 05:16:30;;;;;;;15.00;2.73;;;;;;;;;;5092670;28;20191;-81
2024/04/07 05:18:56;;;;;;;10.70;2.33;;;;;;;;;;5094304;28;20228;-81
2024/04/07 05:21:23;;;;;;;16.27;2.47;;;;;;;;;;5094234;28;20296;-81
2024/04/07 05:23:51;;;;;;;10.40;2.20;;;;;;;;;;5094403;28;20229;-81
2024/04/07 05:26:19;;;;;;;12.90;2.43;;;;;;;;;;5094375;28;20732;-85
2024/04/07 05:28:46;;;;;;;16.83;2.90;;;;;;;;;;5094713;28;20297;-84
2024/04/07 05:31:13;;;;;;;17.53;2.80;;;;;;;;;;5094468;28;20297;-85
2024/04/07 05:33:40;;;;;;;10.60;2.47;;;;;;;;;;5094494;28;20190;-85
2024/04/07 05:36:07;;;;;;;14.97;2.77;;;;;;;;;;5093814;28;20225;-84
2024/04/07 05:38:34;;;;;;;15.17;2.93;;;;;;;;;;5093233;28;20197;-85
2024/04/07 05:41:03;;;;;;;14.27;2.87;;;;;;;;;;5094657;28;20202;-84
2024/04/07 05:43:31;;;;;;;11.03;2.53;;;;;;;;;;5094498;28;20202;-84
2024/04/07 05:46:02;;;;;;;16.57;2.67;;;;;;;;;;5094155;28;20679;-84
2024/04/07 05:48:29;;;;;;;15.87;2.83;;;;;;;;;;5094245;28;20199;-85
2024/04/07 05:50:56;;;;;;;13.23;2.53;;;;;;;;;;5094216;28;20230;-85
2024/04/07 05:53:22;;;;;;;17.03;3.07;;;;;;;;;;5094292;28;20243;-84
2024/04/07 05:55:49;;;;;;;14.57;2.53;;;;;;;;;;5093850;28;20222;-85
2024/04/07 05:58:17;;;;;;;10.57;2.77;;;;;;;;;;5094456;28;20628;-84
2024/04/07 06:00:44;;;;;;;12.10;2.87;;;;;;;;;;5094088;28;20568;-84
2024/04/07 06:03:11;;;;;;;14.83;2.43;;;;;;;;;;5092990;28;20236;-83
2024/04/07 06:05:39;;;;;;;12.33;2.40;;;;;;;;;;5093339;28;20194;-83
2024/04/07 06:08:05;;;;;;;16.73;2.97;;;;;;;;;;5093629;28;20206;-84
2024/04/07 06:10:32;;;;;;;11.93;2.57;;;;;;;;;;5093814;28;20323;-84
2024/04/07 06:12:59;;;;;;;15.17;2.73;;;;;;;;;;5094221;28;20252;-84
2024/04/07 06:15:29;;;;;;;19.90;2.80;;;;;;;;;;5093849;28;20567;-85
2024/04/07 06:17:55;;;;;;;13.87;2.50;;;;;;;;;;5093513;28;20294;-84
2024/04/07 06:20:22;;;;;;;13.87;2.37;;;;;;;;;;5093610;28;20198;-83
2024/04/07 06:22:48;;;;;;;13.00;2.60;;;;;;;;;;5093176;28;20272;-83
2024/04/07 06:25:16;;;;;;;14.27;2.87;;;;;;;;;;5093671;28;20706;-83
2024/04/07 06:27:42;;;;;;;12.17;2.50;;;;;;;;;;5093308;28;20247;-85
2024/04/07 06:30:09;;;;;;;11.10;2.03;;;;;;;;;;5093428;28;20206;-83
2024/04/07 06:32:37;;;;;;;13.10;3.10;;;;;;;;;;5093080;28;20199;-84
2024/04/07 06:35:06;;;;;;;11.73;2.60;;;;;;;;;;5092820;28;20316;-84
2024/04/07 06:37:32;;;;;;;12.63;2.70;;;;;;;;;;5093926;28;20565;-84
2024/04/07 06:39:59;;;;;;;12.50;2.50;;;;;;;;;;5092813;28;20678;-85
2024/04/07 06:42:27;;;;;;;11.93;2.40;;;;;;;;;;5093325;28;20251;-84
2024/04/07 06:44:54;;;;;;;13.87;2.70;;;;;;;;;;5092979;28;20198;-83
2024/04/07 06:47:21;;;;;;;11.57;2.73;;;;;;;;;;5093081;28;20291;-83
2024/04/07 06:49:52;;;;;;;10.17;2.43;;;;;;;;;;5092461;28;20194;-84
2024/04/07 06:52:19;;;;;;;12.77;2.47;;;;;;;;;;5092865;28;20195;-84
2024/04/07 06:54:46;;;;;;;10.43;2.13;;;;;;;;;;5092582;28;20222;-84
2024/04/07 06:57:12;;;;;;;12.10;2.33;;;;;;;;;;5092460;28;20195;-84
2024/04/07 06:59:40;;;;;;;10.23;2.37;;;;;;;;;;5092474;28;20198;-84
2024/04/07 07:02:06;;;;;;;13.57;2.83;;;;;;;;;;5092604;28;20190;-84
2024/04/07 07:04:34;;;;;;;10.43;2.40;;;;;;;;;;5092304;28;20198;-84
2024/04/07 07:07:02;;;;;;;8.13;1.75;;;;;;;;;;5092411;28;20230;-84
2024/04/07 07:09:29;;;;;;;9.38;2.22;;;;;;;;;;5092419;28;20201;-84
2024/04/07 07:11:56;;;;;;;15.68;2.75;;;;;;;;;;5092105;28;20240;-84
2024/04/07 07:14:23;;;;;;;8.45;2.45;;;;;;;;;;5091862;28;20244;-84
2024/04/07 07:16:49;;;;;;;10.63;2.25;;;;;;;;;;5092243;28;20195;-85
2024/04/07 07:19:16;;;;;;;8.35;2.00;;;;;;;;;;5092099;28;20199;-84
2024/04/07 07:21:43;;;;;;;9.43;2.08;;;;;;;;;;5092216;28;20655;-83
2024/04/07 07:24:11;;;;;;;10.63;2.25;;;;;;;;;;5092505;28;20885;-85
2024/04/07 07:26:38;;;;;;;9.38;2.30;;;;;;;;;;5091687;28;20230;-84
2024/04/07 07:29:05;;;;;;;11.60;1.95;;;;;;;;;;5092199;28;20202;-82
2024/04/07 07:31:31;;;;;;;8.95;2.22;;;;;;;;;;5092047;28;20194;-84
2024/04/07 07:33:59;;;;;;;11.10;2.15;;;;;;;;;;5091529;28;20202;-85
2024/04/07 07:36:25;;;;;;;9.25;2.05;;;;;;;;;;5092286;28;20553;-84
2024/04/07 07:38:52;;;;;;;9.70;1.90;;;;;;;;;;5091958;28;20671;-83
2024/04/07 07:41:20;;;;;;;11.45;1.95;;;;;;;;;;5091897;28;20194;-83
2024/04/07 07:43:47;;;;;;;7.75;2.10;;;;;;;;;;5091999;28;20547;-84
2024/04/07 07:46:13;;;;;;;8.18;1.90;;;;;;;;;;5091759;28;20199;-83
2024/04/07 07:48:42;;;;;;;10.23;2.17;;;;;;;;;;5091802;28;20216;-84
2024/04/07 07:51:09;;;;;;;10.32;2.10;;;;;;;;;;5091761;28;20251;-84
2024/04/07 07:53:37;;;;;;;7.25;2.30;;;;;;;;;;5092160;28;20194;-84
2024/04/07 07:56:03;;;;;;;11.18;2.40;;;;;;;;;;5091695;28;20255;-84
2024/04/07 07:58:32;;;;;;;8.80;2.08;;;;;;;;;;5092109;28;20287;-84
2024/04/07 08:00:58;;;;;;;9.27;2.30;;;;;;;;;;5091165;28;20202;-84
2024/04/07 08:03:25;;;;;;;10.98;2.20;;;;;;;;;;5091784;28;20252;-84
2024/04/07 08:05:52;;;;;;;5.15;1.90;;;;;;;;;;5091556;28;20190;-83
2024/04/07 08:08:19;;;;;;;6.90;1.80;;;;;;;;;;5092275;28;20205;-84
2024/04/07 08:10:45;;;;;;;6.97;1.90;;;;;;;;;;5091585;28;20248;-83
2024/04/07 08:13:12;;;;;;;10.40;2.50;;;;;;;;;;5091496;28;20646;-85
2024/04/07 08:15:41;;;;;;;6.95;2.15;;;;;;;;;;5090896;28;20291;-85
2024/04/07 08:18:09;;;;;;;6.55;2.30;;;;;;;;;;5091454;28;20289;-83
2024/04/07 08:20:36;;;;;;;7.25;1.88;;;;;;;;;;5091013;28;20770;-81
2024/04/07 08:23:03;;;;;;;7.13;1.90;;;;;;;;;;5091597;28;20252;-82
2024/04/07 08:25:31;;;;;;;7.63;2.13;;;;;;;;;;5091539;28;20786;-82
2024/04/07 08:27:58;;;;;;;7.60;2.10;;;;;;;;;;5094355;28;20218;-84
2024/04/07 08:30:26;;;;;;;8.75;2.00;;;;;;;;;;5095432;28;20190;-83
2024/04/07 08:32:55;;;;;;;9.13;1.88;;;;;;;;;;5074972;28;20191;-84
2024/04/07 08:35:21;;;;;;;7.45;1.70;;;;;;;;;;5075166;28;20280;-81
2024/04/07 08:37:48;;;;;;;9.82;1.90;;;;;;;;;;5075225;28;20203;-81
2024/04/07 08:40:14;;;;;;;9.30;1.60;;;;;;;;;;5075252;28;20195;-85
2024/04/07 08:42:43;;;;;;;6.72;1.75;;;;;;;;;;5075286;28;20274;-84
2024/04/07 08:45:09;;;;;;;5.57;1.42;;;;;;;;;;5074646;28;20618;-84
2024/04/07 08:47:37;;;;;;;6.35;1.95;;;;;;;;;;5075324;28;20660;-85
2024/04/07 08:50:05;;;;;;;7.78;2.00;;;;;;;;;;5075009;28;20277;-85
2024/04/07 08:52:35;;;;;;;6.80;1.67;;;;;;;;;;5074837;28;20270;-84
2024/04/07 08:55:01;;;;;;;8.82;1.83;;;;;;;;;;5075200;28;20707;-85
2024/04/07 08:57:29;;;;;;;10.07;2.45;;;;;;;;;;5075053;28;20205;-83
2024/04/07 08:59:55;;;;;;;8.38;1.80;;;;;;;;;;5091247;28;20203;-84
2024/04/07 09:02:23;;;;;;;9.30;1.70;;;;;;;;;;5094853;28;20222;-84
2024/04/07 09:04:49;;;;;;;8.60;2.05;;;;;;;;;;5094847;28;20250;-84
2024/04/07 09:07:18;;;;;;;8.13;2.15;;;;;;;;;;5095218;28;20444;-85
2024/04/07 09:09:44;;;;;;;9.20;1.77;;;;;;;;;;5095418;28;20724;-85
2024/04/07 09:12:12;;;;;;;6.95;1.88;;;;;;;;;;5094813;28;20198;-85
2024/04/07 09:14:44;;;;;;;11.50;1.92;;;;;;;;;;5078415;28;20284;-83
2024/04/07 09:17:11;;;;;;;7.22;1.75;;;;;;;;;;5083071;28;20246;-86
2024/04/07 09:19:38;;;;;;;6.28;1.70;;;;;;;;;;5094726;28;20205;-85
2024/04/07 09:22:06;;;;;;;6.00;1.90;;;;;;;;;;5095294;28;20739;-83
2024/04/07 09:24:35;;;;;;;7.68;1.55;;;;;;;;;;5094917;28;20195;-84
2024/04/07 09:27:05;;;;;;;6.65;1.58;;;;;;;;;;5091744;28;20230;-84
2024/04/07 09:29:32;;;;;;;8.90;1.73;;;;;;;;;;5085265;28;20252;-84
2024/04/07 09:32:00;;;;;;;6.35;1.60;;;;;;;;;;5094471;28;20784;-86
2024/04/07 09:34:26;;;;;;;6.32;1.58;;;;;;;;;;5094675;28;20202;-85
2024/04/07 09:36:54;;;;;;;6.20;1.30;;;;;;;;;;5094998;28;20205;-83
2024/04/07 09:39:20;;;;;;;7.18;1.67;;;;;;;;;;5092042;28;20191;-83
2024/04/07 09:41:49;;;;;;;6.82;1.70;;;;;;;;;;5092014;28;20218;-82
2024/04/07 09:44:18;;;;;;;8.25;1.80;;;;;;;;;;5091898;28;20666;-84
2024/04/07 09:46:46;;;;;;;6.70;1.77;;;;;;;;;;5094455;28;20285;-85
2024/04/07 09:49:14;;;;;;;3.33;1.13;;;;;;;;;;5093839;28;20190;-84
2024/04/07 09:51:44;;;;;;;5.82;1.63;;;;;;;;;;5094844;28;20207;-84
2024/04/07 09:54:14;;;;;;;8.70;1.58;;;;;;;;;;5094012;28;20249;-84
2024/04/07 09:56:43;;;;;;;6.25;1.55;;;;;;;;;;5093372;28;20317;-83
2024/04/07 09:59:11;;;;;;;5.78;1.55;;;;;;;;;;5093745;28;20283;-84
2024/04/07 10:01:38;;;;;;;7.05;1.90;;;;;;;;;;5090462;28;20206;-84
2024/04/07 10:04:04;;;;;;;3.65;1.15;;;;;;;;;;5093617;28;20247;-84
2024/04/07 10:06:32;;;;;;;6.72;1.50;;;;;;;;;;5091794;28;20276;-83
2024/04/07 10:08:59;;;;;;;5.53;1.70;;;;;;;;;;5100281;28;20656;-83
2024/04/07 10:11:26;;;;;;;6.15;1.45;;;;;;;;;;5092542;28;20225;-84
2024/04/07 10:13:53;;;;;;;6.47;1.45;;;;;;;;;;5091512;28;20682;-84
2024/04/07 10:16:24;;;;;;;5.10;1.15;;;;;;;;;;5093099;28;20264;-84
2024/04/07 10:18:50;;;;;;;6.13;1.55;;;;;;;;;;5093202;28;20198;-83
2024/04/07 10:21:18;;;;;;;7.28;1.63;;;;;;;;;;5093128;28;20201;-83
2024/04/07 10:23:44;;;;;;;7.20;1.65;;;;;;;;;;5093600;28;20606;-85
2024/04/07 10:26:11;;;;;;;4.97;1.33;;;;;;;;;;5093224;28;20329;-84
2024/04/07 10:28:47;;;;;;;6.55;1.73;;;;;;;;;;5093129;28;20202;-82
2024/04/07 10:31:17;;;;;;;6.05;1.65;;;;;;;;;;5091958;28;20210;-84
2024/04/07 10:33:48;;;;;;;5.00;1.42;;;;;;;;;;5092990;28;20199;-84
2024/04/07 10:36:17;;;;;;;5.18;1.35;;;;;;;;;;5091752;28;20249;-83
2024/04/07 10:38:44;;;;;;;5.60;1.60;;;;;;;;;;5090543;28;20207;-83
2024/04/07 10:41:17;;;;;;;7.68;1.60;;;;;;;;;;5092285;28;20671;-84
2024/04/07 10:43:44;;;;;;;5.93;1.70;;;;;;;;;;5079029;28;20199;-85
2024/04/07 10:46:11;;;;;;;6.50;1.58;;;;;;;;;;5073370;28;20291;-83
2024/04/07 10:48:37;;;;;;;4.65;1.40;;;;;;;;;;5088500;28;20214;-83
2024/04/07 10:51:09;;;;;;;7.95;1.65;;;;;;;;;;5091741;28;20242;-84
2024/04/07 10:53:35;;;;;;;7.50;1.33;;;;;;;;;;5080435;28;20290;-84
2024/04/07 10:56:03;;;;;;;6.35;1.40;;;;;;;;;;5092000;28;20241;-83
2024/04/07 10:58:29;;;;;;;8.18;2.30;;;;;;;;;;5092166;28;20199;-84
2024/04/07 11:00:56;;;;;;;6.68;1.45;;;;;;;;;;5091242;28;20198;-83
2024/04/07 11:03:23;;;;;;;7.53;1.70;;;;;;;;;;5092475;28;20194;-84
2024/04/07 11:05:51;;;;;;;5.28;1.33;;;;;;;;;;5092650;28;20271;-84
2024/04/07 11:08:19;;;;;;;7.38;1.48;;;;;;;;;;5092230;28;20199;-84
2024/04/07 11:10:51;;;;;;;6.50;1.40;;;;;;;;;;5092052;28;20713;-82
2024/04/07 11:13:18;;;;;;;4.97;1.17;;;;;;;;;;5091683;28;20679;-83
2024/04/07 11:15:46;;;;;;;5.95;1.30;;;;;;;;;;5093096;28;20226;-84
2024/04/07 11:18:13;;;;;;;6.18;2.28;;;;;;;;;;5092344;28;20285;-84
2024/04/07 11:20:41;;;;;;;5.85;1.85;;;;;;;;;;5091716;28;20209;-84
2024/04/07 11:23:08;;;;;;;7.22;2.20;;;;;;;;;;5091713;28;20198;-85
2024/04/07 11:25:36;;;;;;;8.00;1.65;;;;;;;;;;5092251;28;20245;-83
2024/04/07 11:28:03;;;;;;;7.88;2.53;;;;;;;;;;5092207;28;20790;-85
2024/04/07 11:30:34;;;;;;;7.68;1.83;;;;;;;;;;5091652;28;20565;-84
2024/04/07 11:33:06;;;;;;;6.32;1.55;;;;;;;;;;5098552;28;20255;-84
2024/04/07 11:35:34;;;;;;;6.05;1.50;;;;;;;;;;5112371;28;20697;-84
2024/04/07 11:38:01;;;;;;;6.75;1.55;;;;;;;;;;5098323;28;20194;-84
2024/04/07 11:40:28;;;;;;;8.52;1.50;;;;;;;;;;5091615;28;20202;-86
2024/04/07 11:42:59;;;;;;;6.50;1.45;;;;;;;;;;5091674;28;20210;-85
2024/04/07 11:45:27;;;;;;;5.07;1.55;;;;;;;;;;5091695;28;20205;-85
2024/04/07 11:47:53;;;;;;;5.43;1.67;;;;;;;;;;5092075;28;20662;-86
2024/04/07 11:50:24;;;;;;;7.38;1.33;;;;;;;;;;5101163;28;20205;-86
2024/04/07 11:52:50;;;;;;;5.10;1.38;;;;;;;;;;5100068;28;20202;-87
2024/04/07 11:55:18;;;;;;;5.88;1.60;;;;;;;;;;5091941;28;20698;-85
2024/04/07 11:57:44;;;;;;;6.53;1.10;;;;;;;;;;5092573;28;20605;-86
2024/04/07 12:00:14;;;;;;;5.10;1.42;;;;;;;;;;5091980;28;20218;-85
2024/04/07 12:02:40;;;;;;;7.70;1.85;;;;;;;;;;5091443;28;20719;-84
2024/04/07 12:05:08;;;;;;;7.57;1.17;;;;;;;;;;5091816;28;20300;-86
2024/04/07 12:07:35;;;;;;;4.75;1.27;;;;;;;;;;5092140;28;20202;-85
2024/04/07 12:10:02;;;;;;;8.82;1.83;;;;;;;;;;5091344;28;20257;-85
2024/04/07 12:12:30;;;;;;;8.48;1.50;;;;;;;;;;5091763;28;20206;-86
2024/04/07 12:14:59;;;;;;;8.13;1.55;;;;;;;;;;5091954;28;20221;-85
2024/04/07 12:17:28;;;;;;;7.38;1.35;;;;;;;;;;5091590;28;20198;-85
2024/04/07 12:19:55;;;;;;;7.55;1.45;;;;;;;;;;5091524;28;20198;-85
2024/04/07 12:22:23;;;;;;;4.75;1.20;;;;;;;;;;5091252;28;20552;-84
2024/04/07 12:24:50;;;;;;;8.63;1.45;;;;;;;;;;5091774;28;20681;-86
2024/04/07 12:27:18;;;;;;;6.95;1.40;;;;;;;;;;5091208;28;20230;-85
2024/04/07 12:29:47;;;;;;;5.78;1.30;;;;;;;;;;5091840;28;20202;-84
2024/04/07 12:32:14;;;;;;;8.15;1.20;;;;;;;;;;5091550;28;20194;-84
2024/04/07 12:34:42;;;;;;;5.95;1.58;;;;;;;;;;5091425;28;20194;-86
2024/04/07 12:37:09;;;;;;;7.93;1.38;;;;;;;;;;5090435;28;20222;-84
2024/04/07 12:39:36;;;;;;;8.82;1.67;;;;;;;;;;5089468;28;20194;-86
2024/04/07 12:42:03;;;;;;;6.63;1.45;;;;;;;;;;5091917;28;20203;-86
2024/04/07 12:44:29;;;;;;;5.93;1.50;;;;;;;;;;5086414;28;20206;-86
2024/04/07 12:46:57;;;;;;;8.27;1.60;;;;;;;;;;5091472;28;20317;-86
2024/04/07 12:49:23;;;;;;;7.20;1.40;;;;;;;;;;5091065;28;20663;-84
2024/04/07 12:51:52;;;;;;;5.07;1.38;;;;;;;;;;5090620;28;20203;-84
2024/04/07 12:54:18;;;;;;;4.82;1.23;;;;;;;;;;5090801;28;20199;-84
2024/04/07 12:56:46;;;;;;;6.93;1.60;;;;;;;;;;5090391;28;20237;-84
2024/04/07 12:59:12;;;;;;;4.15;1.48;;;;;;;;;;5088961;28;20202;-89
2024/04/07 13:01:39;;;;;;;8.70;1.50;;;;;;;;;;5089826;28;20210;-84
2024/04/07 13:04:05;;;;;;;9.80;1.88;;;;;;;;;;5099475;28;20194;-85
2024/04/07 13:06:33;;;;;;;4.90;1.55;;;;;;;;;;5094393;28;20274;-86
2024/04/07 13:09:00;;;;;;;8.25;1.38;;;;;;;;;;5090453;28;20202;-86
2024/04/07 13:11:29;;;;;;;4.15;1.30;;;;;;;;;;5091244;28;20291;-87
2024/04/07 13:13:55;;;;;;;5.40;1.15;;;;;;;;;;5082801;28;20282;-86
2024/04/07 13:16:22;;;;;;;6.80;1.40;;;;;;;;;;5074768;28;20254;-86
2024/04/07 13:18:48;;;;;;;7.03;1.40;;;;;;;;;;5088733;28;20781;-87
2024/04/07 13:21:16;;;;;;;7.80;1.67;;;;;;;;;;5092750;28;20821;-86
2024/04/07 13:23:42;;;;;;;4.93;1.17;;;;;;;;;;5094327;28;20198;-86
2024/04/07 13:26:11;;;;;;;7.43;1.27;;;;;;;;;;5094074;28;20317;-86
2024/04/07 13:28:37;;;;;;;7.20;1.60;;;;;;;;;;5093766;28;20239;-86
2024/04/07 13:31:05;;;;;;;7.60;1.33;;;;;;;;;;5086982;28;20559;-86
2024/04/07 13:33:32;;;;;;;5.78;1.30;;;;;;;;;;5076128;28;20199;-86
2024/04/07 13:35:59;;;;;;;8.13;1.55;;;;;;;;;;5086432;28;20317;-85
2024/04/07 13:38:25;;;;;;;4.00;1.38;;;;;;;;;;5090926;28;20202;-86
2024/04/07 13:40:56;;;;;;;6.95;1.35;;;;;;;;;;5078037;28;20222;-87
2024/04/07 13:43:24;;;;;;;6.65;1.30;;;;;;;;;;5091662;28;20205;-87
2024/04/07 13:45:51;;;;;;;7.80;1.55;;;;;;;;;;5074514;28;20211;-85
2024/04/07 13:48:17;;;;;;;7.50;1.40;;;;;;;;;;5083071;28;20622;-85
2024/04/07 13:50:47;;;;;;;6.97;1.65;;;;;;;;;;5074645;28;20233;-84
2024/04/07 13:53:13;;;;;;;8.00;1.25;;;;;;;;;;5090045;28;20209;-84
2024/04/07 13:55:40;;;;;;;6.07;1.13;;;;;;;;;;5093646;28;20249;-85
2024/04/07 13:58:07;;;;;;;6.18;1.40;;;;;;;;;;5093491;28;20207;-84
2024/04/07 14:00:37;;;;;;;4.72;1.48;;;;;;;;;;5093341;28;20266;-83
2024/04/07 14:03:04;;;;;;;8.73;1.50;;;;;;;;;;5093571;28;20285;-85
2024/04/07 14:05:37;;;;;;;6.20;1.45;;;;;;;;;;5094170;28;20218;-85
2024/04/07 14:08:04;;;;;;;8.85;2.00;;;;;;;;;;5093381;28;20212;-85
2024/04/07 14:10:36;;;;;;;8.70;1.60;;;;;;;;;;5093900;28;20198;-84
2024/04/07 14:13:02;;;;;;;12.23;1.90;;;;;;;;;;5093683;28;20209;-92
2024/04/07 14:15:29;;;;;;;9.57;1.65;;;;;;;;;;5093911;28;20457;-88
2024/04/07 14:17:57;;;;;;;8.73;1.33;;;;;;;;;;5093298;28;20573;-87
2024/04/07 14:20:24;;;;;;;7.22;1.23;;;;;;;;;;5094168;28;20293;-87
2024/04/07 14:22:51;;;;;;;8.52;1.63;;;;;;;;;;5094670;28;20252;-87
2024/04/07 14:25:19;;;;;;;7.68;1.95;;;;;;;;;;5093534;28;22145;-87
2024/04/07 14:27:45;;;;;;;7.68;1.92;;;;;;;;;;5093522;28;20586;-87
2024/04/07 14:30:13;;;;;;;7.90;1.45;;;;;;;;;;5094480;28;20194;-88
2024/04/07 14:32:39;;;;;;;8.32;1.50;;;;;;;;;;5093912;28;20496;-88
2024/04/07 14:35:08;;;;;;;9.85;1.80;;;;;;;;;;5094230;28;20212;-85
2024/04/07 14:37:35;;;;;;;9.80;1.63;;;;;;;;;;5093830;28;20286;-84
2024/04/07 14:40:03;;;;;;;9.82;1.95;;;;;;;;;;5093044;28;20221;-84
2024/04/07 14:42:29;;;;;;;6.15;1.33;;;;;;;;;;5093395;28;20195;-83